sensor_id;sensor_type;location;lat;lon;timestamp;pressure;altitude;pressure_sealevel;temperature;humidity
81545;BME280;70990;50.618;7.346;2023-08-24T00:01:33;98476.59;;;17.67;81.52
81545;BME280;70990;50.618;7.346;2023-08-24T00:03:59;98484.38;;;17.72;81.36
81545;BME280;70990;50.618;7.346;2023-08-24T00:06:26;98466.84;;;17.71;80.79
81545;BME280;70990;50.618;7.346;2023-08-24T00:08:53;98476.13;;;17.68;81.28
81545;BME280;70990;50.618;7.346;2023-08-24T00:11:19;98468.72;;;17.74;80.33
81545;BME280;70990;50.618;7.346;2023-08-24T00:13:46;98469.28;;;17.69;79.92
81545;BME280;70990;50.618;7.346;2023-08-24T00:16:12;98469.63;;;17.71;79.09
81545;BME280;70990;50.618;7.346;2023-08-24T00:18:39;98472.69;;;17.86;78.78
81545;BME280;70990;50.618;7.346;2023-08-24T00:21:06;98476.13;;;17.90;79.11
81545;BME280;70990;50.618;7.346;2023-08-24T00:23:32;98468.91;;;18.02;79.49
81545;BME280;70990;50.618;7.346;2023-08-24T00:25:59;98476.88;;;18.12;79.16
81545;BME280;70990;50.618;7.346;2023-08-24T00:28:25;98477.22;;;18.14;79.08
81545;BME280;70990;50.618;7.346;2023-08-24T00:30:52;98467.25;;;18.13;79.18
81545;BME280;70990;50.618;7.346;2023-08-24T00:33:19;98467.06;;;18.08;79.03
81545;BME280;70990;50.618;7.346;2023-08-24T00:35:45;98472.63;;;17.99;79.43
81545;BME280;70990;50.618;7.346;2023-08-24T00:38:12;98470.84;;;18.14;77.82
81545;BME280;70990;50.618;7.346;2023-08-24T00:40:41;98472.22;;;18.09;77.60
81545;BME280;70990;50.618;7.346;2023-08-24T00:43:08;98471.88;;;18.07;78.14
81545;BME280;70990;50.618;7.346;2023-08-24T00:45:34;98464.69;;;17.97;78.64
81545;BME280;70990;50.618;7.346;2023-08-24T00:48:02;98457.81;;;17.67;78.94
81545;BME280;70990;50.618;7.346;2023-08-24T00:50:29;98461.38;;;17.55;78.80
81545;BME280;70990;50.618;7.346;2023-08-24T00:52:56;98463.66;;;17.60;81.29
81545;BME280;70990;50.618;7.346;2023-08-24T00:55:22;98460.81;;;17.73;81.53
81545;BME280;70990;50.618;7.346;2023-08-24T00:57:49;98463.78;;;17.79;81.43
81545;BME280;70990;50.618;7.346;2023-08-24T01:00:16;98457.00;;;17.89;80.40
81545;BME280;70990;50.618;7.346;2023-08-24T01:02:43;98469.13;;;17.86;81.56
81545;BME280;70990;50.618;7.346;2023-08-24T01:05:10;98457.34;;;17.69;81.62
81545;BME280;70990;50.618;7.346;2023-08-24T01:07:38;98458.88;;;17.48;82.17
81545;BME280;70990;50.618;7.346;2023-08-24T01:10:08;98462.84;;;17.60;81.95
81545;BME280;70990;50.618;7.346;2023-08-24T01:15:55;98460.16;;;17.56;81.65
81545;BME280;70990;50.618;7.346;2023-08-24T01:18:25;98454.06;;;17.49;81.82
81545;BME280;70990;50.618;7.346;2023-08-24T01:20:52;98456.00;;;17.39;82.94
81545;BME280;70990;50.618;7.346;2023-08-24T01:23:33;98460.09;;;17.47;82.14
81545;BME280;70990;50.618;7.346;2023-08-24T01:26:07;98467.16;;;17.39;82.51
81545;BME280;70990;50.618;7.346;2023-08-24T01:28:34;98457.94;;;17.29;82.61
81545;BME280;70990;50.618;7.346;2023-08-24T01:31:04;98453.69;;;17.25;82.78
81545;BME280;70990;50.618;7.346;2023-08-24T01:33:31;98455.94;;;17.30;82.05
81545;BME280;70990;50.618;7.346;2023-08-24T01:35:58;98449.03;;;17.22;82.62
81545;BME280;70990;50.618;7.346;2023-08-24T01:38:27;98446.47;;;17.15;83.17
81545;BME280;70990;50.618;7.346;2023-08-24T01:41:07;98452.94;;;17.12;82.67
81545;BME280;70990;50.618;7.346;2023-08-24T01:43:36;98455.22;;;17.04;83.27
81545;BME280;70990;50.618;7.346;2023-08-24T01:46:12;98436.34;;;16.96;83.26
81545;BME280;70990;50.618;7.346;2023-08-24T01:48:39;98434.81;;;16.82;84.11
81545;BME280;70990;50.618;7.346;2023-08-24T01:51:07;98438.19;;;16.77;83.42
81545;BME280;70990;50.618;7.346;2023-08-24T01:53:34;98435.25;;;16.80;83.21
81545;BME280;70990;50.618;7.346;2023-08-24T01:56:08;98438.94;;;16.90;82.60
81545;BME280;70990;50.618;7.346;2023-08-24T01:58:34;98428.94;;;16.80;83.36
81545;BME280;70990;50.618;7.346;2023-08-24T02:01:01;98411.28;;;16.70;83.15
81545;BME280;70990;50.618;7.346;2023-08-24T02:03:30;98410.94;;;16.68;81.83
81545;BME280;70990;50.618;7.346;2023-08-24T02:05:57;98409.84;;;16.53;82.75
81545;BME280;70990;50.618;7.346;2023-08-24T02:08:23;98402.03;;;16.48;83.19
81545;BME280;70990;50.618;7.346;2023-08-24T02:10:50;98409.72;;;16.57;83.13
81545;BME280;70990;50.618;7.346;2023-08-24T02:13:17;98409.50;;;16.38;85.18
81545;BME280;70990;50.618;7.346;2023-08-24T02:15:44;98398.91;;;16.59;85.22
81545;BME280;70990;50.618;7.346;2023-08-24T02:18:11;98407.84;;;16.66;84.46
81545;BME280;70990;50.618;7.346;2023-08-24T02:20:38;98395.47;;;16.54;84.48
81545;BME280;70990;50.618;7.346;2023-08-24T02:23:05;98394.91;;;16.60;84.46
81545;BME280;70990;50.618;7.346;2023-08-24T02:25:32;98389.88;;;16.54;85.11
81545;BME280;70990;50.618;7.346;2023-08-24T02:27:59;98389.53;;;16.65;85.14
81545;BME280;70990;50.618;7.346;2023-08-24T02:30:26;98393.31;;;16.71;84.55
81545;BME280;70990;50.618;7.346;2023-08-24T02:32:52;98402.13;;;16.70;85.10
81545;BME280;70990;50.618;7.346;2023-08-24T02:35:19;98387.09;;;16.67;85.13
81545;BME280;70990;50.618;7.346;2023-08-24T02:37:45;98375.16;;;16.67;85.85
81545;BME280;70990;50.618;7.346;2023-08-24T02:40:14;98358.97;;;16.49;86.94
81545;BME280;70990;50.618;7.346;2023-08-24T02:42:41;98367.88;;;16.57;85.73
81545;BME280;70990;50.618;7.346;2023-08-24T02:45:07;98362.06;;;16.51;85.77
81545;BME280;70990;50.618;7.346;2023-08-24T02:47:34;98364.78;;;16.42;85.91
81545;BME280;70990;50.618;7.346;2023-08-24T02:50:00;98363.31;;;16.37;86.45
81545;BME280;70990;50.618;7.346;2023-08-24T02:52:27;98346.78;;;16.43;86.58
81545;BME280;70990;50.618;7.346;2023-08-24T02:54:53;98352.06;;;16.41;86.71
81545;BME280;70990;50.618;7.346;2023-08-24T02:57:21;98353.88;;;16.35;86.95
81545;BME280;70990;50.618;7.346;2023-08-24T02:59:48;98356.97;;;16.37;86.83
81545;BME280;70990;50.618;7.346;2023-08-24T03:02:14;98353.44;;;16.24;87.50
81545;BME280;70990;50.618;7.346;2023-08-24T03:04:41;98348.50;;;16.28;87.86
81545;BME280;70990;50.618;7.346;2023-08-24T03:07:07;98353.88;;;16.35;87.22
81545;BME280;70990;50.618;7.346;2023-08-24T03:09:35;98360.31;;;16.44;87.40
81545;BME280;70990;50.618;7.346;2023-08-24T03:12:02;98354.84;;;16.53;86.56
81545;BME280;70990;50.618;7.346;2023-08-24T03:14:29;98357.50;;;16.44;87.58
81545;BME280;70990;50.618;7.346;2023-08-24T03:16:55;98343.00;;;16.49;87.25
81545;BME280;70990;50.618;7.346;2023-08-24T03:19:22;98347.28;;;16.29;87.30
81545;BME280;70990;50.618;7.346;2023-08-24T03:21:50;98358.66;;;16.60;86.36
81545;BME280;70990;50.618;7.346;2023-08-24T03:24:16;98359.22;;;16.42;86.54
81545;BME280;70990;50.618;7.346;2023-08-24T03:26:43;98357.06;;;16.46;86.56
81545;BME280;70990;50.618;7.346;2023-08-24T03:29:09;98341.38;;;16.27;87.04
81545;BME280;70990;50.618;7.346;2023-08-24T03:31:36;98341.78;;;16.38;86.61
81545;BME280;70990;50.618;7.346;2023-08-24T03:34:02;98341.22;;;16.43;86.56
81545;BME280;70990;50.618;7.346;2023-08-24T03:36:29;98346.94;;;16.27;86.84
81545;BME280;70990;50.618;7.346;2023-08-24T03:38:57;98341.38;;;16.27;87.50
81545;BME280;70990;50.618;7.346;2023-08-24T03:41:24;98340.81;;;16.32;86.98
81545;BME280;70990;50.618;7.346;2023-08-24T03:43:50;98338.25;;;16.25;87.02
81545;BME280;70990;50.618;7.346;2023-08-24T03:46:17;98344.91;;;16.52;85.95
81545;BME280;70990;50.618;7.346;2023-08-24T03:48:45;98350.50;;;16.40;86.63
81545;BME280;70990;50.618;7.346;2023-08-24T03:51:12;98361.75;;;16.49;86.34
81545;BME280;70990;50.618;7.346;2023-08-24T03:53:39;98369.66;;;16.63;85.72
81545;BME280;70990;50.618;7.346;2023-08-24T03:56:06;98385.72;;;16.59;85.91
81545;BME280;70990;50.618;7.346;2023-08-24T03:58:33;98393.91;;;16.66;85.64
81545;BME280;70990;50.618;7.346;2023-08-24T04:01:03;98414.31;;;16.63;86.07
81545;BME280;70990;50.618;7.346;2023-08-24T04:03:30;98425.66;;;16.81;84.76
81545;BME280;70990;50.618;7.346;2023-08-24T04:05:56;98429.44;;;16.87;84.40
81545;BME280;70990;50.618;7.346;2023-08-24T04:08:23;98433.50;;;16.86;85.03
81545;BME280;70990;50.618;7.346;2023-08-24T04:10:49;98444.22;;;16.75;85.27
81545;BME280;70990;50.618;7.346;2023-08-24T04:13:16;98441.19;;;16.82;85.60
81545;BME280;70990;50.618;7.346;2023-08-24T04:15:42;98448.75;;;16.94;85.76
81545;BME280;70990;50.618;7.346;2023-08-24T04:18:09;98446.16;;;17.00;85.29
81545;BME280;70990;50.618;7.346;2023-08-24T04:20:36;98444.72;;;17.08;85.77
81545;BME280;70990;50.618;7.346;2023-08-24T04:23:03;98447.91;;;17.19;84.45
81545;BME280;70990;50.618;7.346;2023-08-24T04:25:33;98446.47;;;17.15;84.83
81545;BME280;70990;50.618;7.346;2023-08-24T04:28:00;98453.53;;;17.07;86.04
81545;BME280;70990;50.618;7.346;2023-08-24T04:30:26;98449.75;;;17.01;85.39
81545;BME280;70990;50.618;7.346;2023-08-24T04:32:55;98460.09;;;17.13;85.29
81545;BME280;70990;50.618;7.346;2023-08-24T04:35:25;98466.91;;;17.12;85.45
81545;BME280;70990;50.618;7.346;2023-08-24T04:37:51;98453.88;;;17.09;85.44
81545;BME280;70990;50.618;7.346;2023-08-24T04:40:18;98466.25;;;17.08;85.98
81545;BME280;70990;50.618;7.346;2023-08-24T04:42:45;98462.22;;;17.21;85.58
81545;BME280;70990;50.618;7.346;2023-08-24T04:45:11;98468.59;;;17.09;86.06
81545;BME280;70990;50.618;7.346;2023-08-24T04:47:38;98469.16;;;17.17;85.75
81545;BME280;70990;50.618;7.346;2023-08-24T04:50:05;98455.94;;;17.30;85.64
81545;BME280;70990;50.618;7.346;2023-08-24T04:52:32;98456.44;;;17.38;86.02
81545;BME280;70990;50.618;7.346;2023-08-24T04:54:58;98463.53;;;17.51;86.53
81545;BME280;70990;50.618;7.346;2023-08-24T04:57:25;98463.75;;;17.57;83.30
81545;BME280;70990;50.618;7.346;2023-08-24T04:59:51;98458.19;;;17.79;80.67
81545;BME280;70990;50.618;7.346;2023-08-24T05:02:18;98462.97;;;18.00;80.85
81545;BME280;70990;50.618;7.346;2023-08-24T05:04:44;98464.28;;;18.08;79.34
81545;BME280;70990;50.618;7.346;2023-08-24T05:07:11;98453.44;;;18.19;79.13
81545;BME280;70990;50.618;7.346;2023-08-24T05:09:38;98455.84;;;17.99;83.63
81545;BME280;70990;50.618;7.346;2023-08-24T05:12:04;98457.66;;;17.71;84.26
81545;BME280;70990;50.618;7.346;2023-08-24T05:14:31;98463.88;;;17.53;83.80
81545;BME280;70990;50.618;7.346;2023-08-24T05:16:58;98467.91;;;17.52;84.79
81545;BME280;70990;50.618;7.346;2023-08-24T05:19:24;98474.84;;;17.60;84.04
81545;BME280;70990;50.618;7.346;2023-08-24T05:21:54;98460.63;;;17.55;84.10
81545;BME280;70990;50.618;7.346;2023-08-24T05:24:20;98450.88;;;17.59;84.81
81545;BME280;70990;50.618;7.346;2023-08-24T05:26:47;98433.88;;;17.66;85.80
81545;BME280;70990;50.618;7.346;2023-08-24T05:29:13;98408.63;;;17.57;86.30
81545;BME280;70990;50.618;7.346;2023-08-24T05:31:40;98406.03;;;17.41;85.61
81545;BME280;70990;50.618;7.346;2023-08-24T05:34:06;98392.75;;;16.76;86.82
81545;BME280;70990;50.618;7.346;2023-08-24T05:36:33;98375.41;;;16.22;89.61
81545;BME280;70990;50.618;7.346;2023-08-24T05:39:00;98367.25;;;16.40;88.86
81545;BME280;70990;50.618;7.346;2023-08-24T05:41:32;98361.09;;;16.32;89.96
81545;BME280;70990;50.618;7.346;2023-08-24T05:43:59;98360.22;;;16.23;89.42
81545;BME280;70990;50.618;7.346;2023-08-24T05:46:25;98354.06;;;16.53;89.74
81545;BME280;70990;50.618;7.346;2023-08-24T05:48:52;98341.66;;;16.67;89.50
81545;BME280;70990;50.618;7.346;2023-08-24T05:51:19;98340.19;;;16.62;89.45
81545;BME280;70990;50.618;7.346;2023-08-24T05:53:45;98334.63;;;16.62;88.64
81545;BME280;70990;50.618;7.346;2023-08-24T05:56:12;98332.13;;;16.17;89.83
81545;BME280;70990;50.618;7.346;2023-08-24T05:58:39;98318.59;;;16.41;89.32
81545;BME280;70990;50.618;7.346;2023-08-24T06:01:05;98322.78;;;16.58;89.21
81545;BME280;70990;50.618;7.346;2023-08-24T06:03:31;98312.53;;;16.55;89.04
81545;BME280;70990;50.618;7.346;2023-08-24T06:06:02;98309.06;;;16.64;88.65
81545;BME280;70990;50.618;7.346;2023-08-24T06:08:31;98306.47;;;16.69;88.72
81545;BME280;70990;50.618;7.346;2023-08-24T06:10:58;98300.47;;;16.58;88.99
81545;BME280;70990;50.618;7.346;2023-08-24T06:13:24;98288.84;;;16.72;89.14
81545;BME280;70990;50.618;7.346;2023-08-24T06:15:57;98295.66;;;16.71;88.58
81545;BME280;70990;50.618;7.346;2023-08-24T06:18:23;98301.47;;;16.99;88.21
81545;BME280;70990;50.618;7.346;2023-08-24T06:20:50;98293.78;;;17.12;88.07
81545;BME280;70990;50.618;7.346;2023-08-24T06:23:17;98296.50;;;17.24;88.16
81545;BME280;70990;50.618;7.346;2023-08-24T06:25:44;98306.69;;;17.40;87.48
81545;BME280;70990;50.618;7.346;2023-08-24T06:28:11;98298.09;;;17.04;88.47
81545;BME280;70990;50.618;7.346;2023-08-24T06:30:41;98285.72;;;17.14;88.48
81545;BME280;70990;50.618;7.346;2023-08-24T06:33:08;98286.19;;;17.34;86.73
81545;BME280;70990;50.618;7.346;2023-08-24T06:35:35;98279.34;;;17.35;86.54
81545;BME280;70990;50.618;7.346;2023-08-24T06:38:03;98289.00;;;17.43;86.00
81545;BME280;70990;50.618;7.346;2023-08-24T06:40:30;98273.63;;;17.39;86.94
81545;BME280;70990;50.618;7.346;2023-08-24T06:42:57;98274.25;;;17.64;85.13
81545;BME280;70990;50.618;7.346;2023-08-24T06:45:23;98275.47;;;17.63;85.65
81545;BME280;70990;50.618;7.346;2023-08-24T06:47:50;98277.97;;;17.61;85.95
81545;BME280;70990;50.618;7.346;2023-08-24T06:50:17;98276.16;;;17.46;86.02
81545;BME280;70990;50.618;7.346;2023-08-24T06:52:44;98271.59;;;17.61;86.45
81545;BME280;70990;50.618;7.346;2023-08-24T06:55:10;98262.00;;;17.40;86.61
81545;BME280;70990;50.618;7.346;2023-08-24T06:57:37;98252.75;;;17.83;85.12
81545;BME280;70990;50.618;7.346;2023-08-24T07:00:05;98252.22;;;18.16;83.94
81545;BME280;70990;50.618;7.346;2023-08-24T07:02:32;98250.94;;;18.07;85.52
81545;BME280;70990;50.618;7.346;2023-08-24T07:04:59;98245.41;;;18.44;83.64
81545;BME280;70990;50.618;7.346;2023-08-24T07:07:25;98241.03;;;18.34;84.33
81545;BME280;70990;50.618;7.346;2023-08-24T07:09:52;98239.81;;;18.44;84.71
81545;BME280;70990;50.618;7.346;2023-08-24T07:12:18;98246.38;;;18.68;83.20
81545;BME280;70990;50.618;7.346;2023-08-24T07:14:45;98243.88;;;18.70;81.35
81545;BME280;70990;50.618;7.346;2023-08-24T07:17:11;98261.13;;;18.87;80.37
81545;BME280;70990;50.618;7.346;2023-08-24T07:19:41;98237.94;;;18.86;78.50
81545;BME280;70990;50.618;7.346;2023-08-24T07:22:07;98246.50;;;19.10;77.46
81545;BME280;70990;50.618;7.346;2023-08-24T07:24:34;98250.66;;;19.24;77.98
81545;BME280;70990;50.618;7.346;2023-08-24T07:27:12;98235.56;;;19.21;77.24
81545;BME280;70990;50.618;7.346;2023-08-24T07:29:39;98237.50;;;19.57;77.02
81545;BME280;70990;50.618;7.346;2023-08-24T07:32:05;98239.78;;;19.68;75.25
81545;BME280;70990;50.618;7.346;2023-08-24T07:34:35;98239.44;;;19.75;74.75
81545;BME280;70990;50.618;7.346;2023-08-24T07:37:01;98235.91;;;19.98;73.40
81545;BME280;70990;50.618;7.346;2023-08-24T07:39:28;98234.38;;;19.97;71.42
81545;BME280;70990;50.618;7.346;2023-08-24T07:41:55;98224.88;;;20.19;72.95
81545;BME280;70990;50.618;7.346;2023-08-24T07:44:21;98220.22;;;20.16;71.70
81545;BME280;70990;50.618;7.346;2023-08-24T07:46:48;98218.63;;;20.47;71.11
81545;BME280;70990;50.618;7.346;2023-08-24T07:49:14;98213.84;;;20.39;71.86
81545;BME280;70990;50.618;7.346;2023-08-24T07:51:41;98210.44;;;20.11;72.58
81545;BME280;70990;50.618;7.346;2023-08-24T07:54:08;98216.75;;;20.21;71.86
81545;BME280;70990;50.618;7.346;2023-08-24T07:56:35;98209.28;;;20.18;72.29
81545;BME280;70990;50.618;7.346;2023-08-24T07:59:02;98217.78;;;20.08;72.01
81545;BME280;70990;50.618;7.346;2023-08-24T08:01:29;98213.13;;;20.29;72.45
81545;BME280;70990;50.618;7.346;2023-08-24T08:03:55;98212.06;;;20.65;71.67
81545;BME280;70990;50.618;7.346;2023-08-24T08:06:22;98209.47;;;20.76;71.91
81545;BME280;70990;50.618;7.346;2023-08-24T08:08:49;98215.28;;;20.87;71.63
81545;BME280;70990;50.618;7.346;2023-08-24T08:11:15;98222.41;;;20.98;69.89
81545;BME280;70990;50.618;7.346;2023-08-24T08:13:42;98216.56;;;21.01;69.85
81545;BME280;70990;50.618;7.346;2023-08-24T08:16:08;98214.72;;;21.13;70.94
81545;BME280;70990;50.618;7.346;2023-08-24T08:18:36;98223.88;;;21.37;69.38
81545;BME280;70990;50.618;7.346;2023-08-24T08:21:18;98222.44;;;21.42;67.63
81545;BME280;70990;50.618;7.346;2023-08-24T08:23:48;98218.41;;;21.63;69.40
81545;BME280;70990;50.618;7.346;2023-08-24T08:26:15;98216.28;;;21.58;67.39
81545;BME280;70990;50.618;7.346;2023-08-24T08:28:42;98209.94;;;21.78;68.70
81545;BME280;70990;50.618;7.346;2023-08-24T08:31:08;98206.69;;;21.99;65.80
81545;BME280;70990;50.618;7.346;2023-08-24T08:33:35;98195.88;;;21.78;67.03
81545;BME280;70990;50.618;7.346;2023-08-24T08:36:02;98204.19;;;22.22;67.95
81545;BME280;70990;50.618;7.346;2023-08-24T08:38:32;98202.16;;;22.42;66.71
81545;BME280;70990;50.618;7.346;2023-08-24T08:41:03;98205.28;;;22.50;65.21
81545;BME280;70990;50.618;7.346;2023-08-24T08:43:30;98203.25;;;22.50;65.73
81545;BME280;70990;50.618;7.346;2023-08-24T08:45:58;98203.25;;;22.71;64.77
81545;BME280;70990;50.618;7.346;2023-08-24T08:48:27;98204.00;;;22.71;62.73
81545;BME280;70990;50.618;7.346;2023-08-24T08:50:54;98207.53;;;22.66;62.79
81545;BME280;70990;50.618;7.346;2023-08-24T08:53:22;98205.47;;;22.87;63.44
81545;BME280;70990;50.618;7.346;2023-08-24T08:55:51;98198.63;;;22.93;60.79
81545;BME280;70990;50.618;7.346;2023-08-24T08:58:20;98197.47;;;23.06;63.14
81545;BME280;70990;50.618;7.346;2023-08-24T09:00:47;98192.09;;;23.08;60.90
81545;BME280;70990;50.618;7.346;2023-08-24T09:03:17;98183.00;;;23.24;63.37
81545;BME280;70990;50.618;7.346;2023-08-24T09:05:44;98177.16;;;23.27;62.41
81545;BME280;70990;50.618;7.346;2023-08-24T09:08:11;98166.97;;;23.36;60.73
81545;BME280;70990;50.618;7.346;2023-08-24T09:10:38;98158.31;;;23.45;56.72
81545;BME280;70990;50.618;7.346;2023-08-24T09:13:04;98166.25;;;23.41;56.30
81545;BME280;70990;50.618;7.346;2023-08-24T09:15:34;98147.91;;;23.56;56.82
81545;BME280;70990;50.618;7.346;2023-08-24T09:18:02;98143.88;;;23.68;57.30
81545;BME280;70990;50.618;7.346;2023-08-24T09:20:29;98134.41;;;23.66;56.41
81545;BME280;70990;50.618;7.346;2023-08-24T09:22:57;98144.31;;;23.98;55.97
81545;BME280;70990;50.618;7.346;2023-08-24T09:25:24;98141.69;;;23.89;55.95
81545;BME280;70990;50.618;7.346;2023-08-24T09:28:01;98133.50;;;23.91;54.53
81545;BME280;70990;50.618;7.346;2023-08-24T09:30:31;98115.03;;;23.90;54.87
81545;BME280;70990;50.618;7.346;2023-08-24T09:33:02;98116.03;;;23.93;55.07
81545;BME280;70990;50.618;7.346;2023-08-24T09:35:28;98108.81;;;23.86;53.61
81545;BME280;70990;50.618;7.346;2023-08-24T09:37:55;98100.31;;;23.75;53.46
81545;BME280;70990;50.618;7.346;2023-08-24T09:40:25;98112.06;;;24.16;53.90
81545;BME280;70990;50.618;7.346;2023-08-24T09:42:52;98104.16;;;24.31;53.98
81545;BME280;70990;50.618;7.346;2023-08-24T09:45:18;98100.31;;;24.29;53.36
81545;BME280;70990;50.618;7.346;2023-08-24T09:47:51;98096.72;;;24.28;51.86
81545;BME280;70990;50.618;7.346;2023-08-24T09:50:18;98086.31;;;23.97;52.03
81545;BME280;70990;50.618;7.346;2023-08-24T09:52:46;98092.63;;;24.29;53.30
81545;BME280;70990;50.618;7.346;2023-08-24T09:55:15;98104.97;;;24.43;53.04
81545;BME280;70990;50.618;7.346;2023-08-24T09:57:46;98098.44;;;24.15;52.69
81545;BME280;70990;50.618;7.346;2023-08-24T10:00:13;98093.13;;;24.28;52.54
81545;BME280;70990;50.618;7.346;2023-08-24T10:02:49;98106.22;;;24.31;54.12
81545;BME280;70990;50.618;7.346;2023-08-24T10:05:20;98106.78;;;23.87;55.08
81545;BME280;70990;50.618;7.346;2023-08-24T10:07:53;98116.13;;;24.04;54.53
81545;BME280;70990;50.618;7.346;2023-08-24T10:10:23;98112.41;;;23.87;55.28
81545;BME280;70990;50.618;7.346;2023-08-24T10:12:55;98125.47;;;23.73;54.60
81545;BME280;70990;50.618;7.346;2023-08-24T10:15:23;98119.53;;;23.71;55.73
81545;BME280;70990;50.618;7.346;2023-08-24T10:17:53;98129.88;;;23.85;54.15
81545;BME280;70990;50.618;7.346;2023-08-24T10:20:19;98132.16;;;23.81;53.73
81545;BME280;70990;50.618;7.346;2023-08-24T10:22:47;98129.22;;;23.59;54.54
81545;BME280;70990;50.618;7.346;2023-08-24T10:25:16;98131.94;;;23.85;54.13
81545;BME280;70990;50.618;7.346;2023-08-24T10:27:43;98131.97;;;23.90;53.48
81545;BME280;70990;50.618;7.346;2023-08-24T10:30:12;98127.13;;;24.02;54.77
81545;BME280;70990;50.618;7.346;2023-08-24T10:32:39;98134.84;;;24.07;55.36
81545;BME280;70990;50.618;7.346;2023-08-24T10:35:07;98125.19;;;24.25;54.46
81545;BME280;70990;50.618;7.346;2023-08-24T10:37:34;98130.75;;;24.08;54.38
81545;BME280;70990;50.618;7.346;2023-08-24T10:40:00;98133.50;;;23.91;54.32
81545;BME280;70990;50.618;7.346;2023-08-24T10:42:27;98140.00;;;24.08;55.26
81545;BME280;70990;50.618;7.346;2023-08-24T10:44:54;98154.63;;;24.07;54.50
81545;BME280;70990;50.618;7.346;2023-08-24T10:47:22;98159.41;;;24.43;55.85
81545;BME280;70990;50.618;7.346;2023-08-24T10:54:51;98139.84;;;24.29;55.80
81545;BME280;70990;50.618;7.346;2023-08-24T10:57:19;98139.38;;;24.36;54.76
81545;BME280;70990;50.618;7.346;2023-08-24T10:59:47;98130.63;;;24.34;56.02
81545;BME280;70990;50.618;7.346;2023-08-24T11:02:23;98134.03;;;24.60;55.38
81545;BME280;70990;50.618;7.346;2023-08-24T11:05:06;98135.56;;;24.56;54.96
81545;BME280;70990;50.618;7.346;2023-08-24T11:07:33;98132.53;;;24.81;55.76
81545;BME280;70990;50.618;7.346;2023-08-24T11:10:10;98126.09;;;24.75;54.72
81545;BME280;70990;50.618;7.346;2023-08-24T11:15:34;98098.13;;;24.94;53.92
81545;BME280;70990;50.618;7.346;2023-08-24T11:18:22;98109.66;;;24.79;55.25
81545;BME280;70990;50.618;7.346;2023-08-24T11:21:01;98110.69;;;24.87;53.80
81545;BME280;70990;50.618;7.346;2023-08-24T11:23:28;98121.50;;;24.83;52.97
81545;BME280;70990;50.618;7.346;2023-08-24T11:25:56;98106.63;;;25.11;53.64
81545;BME280;70990;50.618;7.346;2023-08-24T11:28:25;98089.34;;;24.81;54.08
81545;BME280;70990;50.618;7.346;2023-08-24T11:30:54;98087.56;;;24.83;52.77
81545;BME280;70990;50.618;7.346;2023-08-24T11:33:29;98090.19;;;25.04;53.34
81545;BME280;70990;50.618;7.346;2023-08-24T11:35:56;98083.19;;;25.38;56.25
81545;BME280;70990;50.618;7.346;2023-08-24T11:38:23;98097.59;;;25.46;54.12
81545;BME280;70990;50.618;7.346;2023-08-24T11:40:49;98091.69;;;25.27;50.95
81545;BME280;70990;50.618;7.346;2023-08-24T11:43:25;98095.53;;;25.41;54.45
81545;BME280;70990;50.618;7.346;2023-08-24T11:45:53;98083.59;;;25.87;55.17
81545;BME280;70990;50.618;7.346;2023-08-24T11:48:26;98073.44;;;25.28;54.09
81545;BME280;70990;50.618;7.346;2023-08-24T11:50:53;98078.09;;;25.09;54.45
81545;BME280;70990;50.618;7.346;2023-08-24T11:53:19;98083.72;;;25.42;54.04
81545;BME280;70990;50.618;7.346;2023-08-24T11:55:46;98093.94;;;25.79;55.80
81545;BME280;70990;50.618;7.346;2023-08-24T11:58:31;98095.97;;;25.84;55.33
81545;BME280;70990;50.618;7.346;2023-08-24T12:00:58;98105.81;;;25.44;53.38
81545;BME280;70990;50.618;7.346;2023-08-24T12:03:25;98124.59;;;25.52;55.67
81545;BME280;70990;50.618;7.346;2023-08-24T12:05:52;98137.19;;;25.46;53.10
81545;BME280;70990;50.618;7.346;2023-08-24T12:08:18;98146.47;;;25.07;53.13
81545;BME280;70990;50.618;7.346;2023-08-24T12:10:45;98157.53;;;25.11;53.28
81545;BME280;70990;50.618;7.346;2023-08-24T12:13:12;98161.88;;;25.12;54.29
81545;BME280;70990;50.618;7.346;2023-08-24T12:15:40;98170.91;;;25.05;53.38
81545;BME280;70990;50.618;7.346;2023-08-24T12:18:11;98158.03;;;25.04;54.70
81545;BME280;70990;50.618;7.346;2023-08-24T12:20:38;98155.47;;;25.06;55.26
81545;BME280;70990;50.618;7.346;2023-08-24T12:23:06;98159.31;;;24.92;52.60
81545;BME280;70990;50.618;7.346;2023-08-24T12:25:42;98187.03;;;24.87;52.92
81545;BME280;70990;50.618;7.346;2023-08-24T12:28:14;98222.81;;;24.90;54.25
81545;BME280;70990;50.618;7.346;2023-08-24T12:30:51;98241.50;;;24.77;54.26
81545;BME280;70990;50.618;7.346;2023-08-24T12:33:25;98234.44;;;24.50;54.25
81545;BME280;70990;50.618;7.346;2023-08-24T12:35:53;98226.16;;;24.30;52.90
81545;BME280;70990;50.618;7.346;2023-08-24T12:38:20;98238.72;;;24.29;53.31
81545;BME280;70990;50.618;7.346;2023-08-24T12:40:47;98218.16;;;24.23;53.18
81545;BME280;70990;50.618;7.346;2023-08-24T12:43:14;98193.13;;;24.04;53.09
81545;BME280;70990;50.618;7.346;2023-08-24T12:45:40;98179.16;;;23.84;55.69
81545;BME280;70990;50.618;7.346;2023-08-24T12:48:07;98187.16;;;23.91;55.67
81545;BME280;70990;50.618;7.346;2023-08-24T12:50:34;98181.47;;;23.86;57.17
81545;BME280;70990;50.618;7.346;2023-08-24T12:53:01;98183.91;;;23.67;57.84
81545;BME280;70990;50.618;7.346;2023-08-24T12:55:28;98176.91;;;23.57;59.29
81545;BME280;70990;50.618;7.346;2023-08-24T12:57:54;98189.66;;;23.47;59.92
81545;BME280;70990;50.618;7.346;2023-08-24T13:00:21;98180.31;;;23.35;63.27
81545;BME280;70990;50.618;7.346;2023-08-24T13:02:48;98171.97;;;23.20;63.07
81545;BME280;70990;50.618;7.346;2023-08-24T13:05:15;98160.59;;;23.09;63.02
81545;BME280;70990;50.618;7.346;2023-08-24T13:07:42;98142.59;;;23.01;65.76
81545;BME280;70990;50.618;7.346;2023-08-24T13:10:09;98137.22;;;23.03;64.94
81545;BME280;70990;50.618;7.346;2023-08-24T13:12:35;98125.09;;;22.91;67.93
81545;BME280;70990;50.618;7.346;2023-08-24T13:15:02;98130.88;;;22.82;68.79